createdAt,value
2023-01-10T00:01:00.332Z,6.26
2023-01-10T00:07:32.729Z,6.20
2023-01-10T00:10:48.824Z,6.23
2023-01-10T00:14:05.205Z,6.24
2023-01-10T00:17:21.871Z,6.18
2023-01-10T00:20:43.401Z,6.15
2023-01-10T00:24:01.070Z,6.20
2023-01-10T00:27:22.554Z,6.21
2023-01-10T00:30:38.895Z,6.15
2023-01-10T00:37:10.880Z,6.16
2023-01-10T00:40:27.409Z,6.19
2023-01-10T00:44:02.207Z,6.18
2023-01-10T00:47:19.523Z,6.08
2023-01-10T00:50:35.626Z,6.01
2023-01-10T00:53:52.039Z,6.05
2023-01-10T00:57:08.420Z,6.04
2023-01-10T01:00:24.844Z,6.06
2023-01-10T01:07:10.110Z,5.97
2023-01-10T01:10:33.792Z,6.00
2023-01-10T01:13:52.717Z,5.97
2023-01-10T01:17:08.869Z,5.99
2023-01-10T01:23:43.063Z,5.94
2023-01-10T01:26:59.640Z,5.93
2023-01-10T01:30:19.611Z,5.93
2023-01-10T01:33:35.812Z,5.92
2023-01-10T01:36:52.339Z,5.95
2023-01-10T01:40:09.649Z,5.91
2023-01-10T01:43:35.153Z,5.88
2023-01-10T01:46:55.715Z,5.88
2023-01-10T01:50:15.247Z,5.87
2023-01-10T01:53:35.869Z,5.86
2023-01-10T01:56:56.867Z,5.81
2023-01-10T02:00:17.674Z,5.80
2023-01-10T02:06:51.620Z,5.78
2023-01-10T02:10:12.808Z,5.76
2023-01-10T02:13:33.600Z,5.78
2023-01-10T02:16:49.935Z,5.69
2023-01-10T02:24:03.180Z,5.73
2023-01-10T02:27:32.849Z,5.58
2023-01-10T02:31:12.062Z,5.65
2023-01-10T02:34:33.331Z,5.62
2023-01-10T02:37:59.344Z,5.64
2023-01-10T02:41:22.428Z,5.67
2023-01-10T02:44:44.721Z,5.73
2023-01-10T02:48:03.824Z,5.67
2023-01-10T02:52:05.556Z,5.74
2023-01-10T02:55:21.949Z,5.69
2023-01-10T02:58:48.697Z,5.65
2023-01-10T03:02:09.289Z,5.63
2023-01-10T03:05:32.719Z,5.60
2023-01-10T03:08:54.890Z,5.52
2023-01-10T03:12:15.851Z,5.57
2023-01-10T03:15:36.061Z,5.56
2023-01-10T03:25:28.652Z,5.57
2023-01-10T03:28:50.076Z,5.54
2023-01-10T03:32:10.516Z,5.53
2023-01-10T03:35:29.367Z,5.59
2023-01-10T03:38:50.655Z,5.59
2023-01-10T03:42:13.371Z,5.55
2023-01-10T03:45:34.595Z,5.50
2023-01-10T03:52:08.535Z,5.48
2023-01-10T03:55:30.057Z,5.54
2023-01-10T03:58:46.218Z,5.51
2023-01-10T04:02:03.535Z,5.54
2023-01-10T04:08:36.203Z,5.51
2023-01-10T04:11:52.236Z,5.48
2023-01-10T04:15:08.428Z,5.46
2023-01-10T04:18:24.779Z,5.41
2023-01-10T04:24:56.875Z,5.40
2023-01-10T04:28:15.892Z,5.39
2023-01-10T04:31:32.311Z,5.33
2023-01-10T04:38:03.932Z,5.41
2023-01-10T04:41:20.119Z,5.36
2023-01-10T04:44:36.222Z,5.33
2023-01-10T04:47:57.021Z,5.28
2023-01-10T04:54:31.122Z,5.30
2023-01-10T04:57:47.322Z,5.25
2023-01-10T05:01:03.809Z,5.25
2023-01-10T05:04:21.087Z,5.24
2023-01-10T05:07:37.135Z,5.28
2023-01-10T05:10:53.318Z,5.25
2023-01-10T05:14:10.235Z,5.23
2023-01-10T05:17:26.425Z,5.15
2023-01-10T05:20:42.721Z,5.13
2023-01-10T05:23:59.995Z,5.18
2023-01-10T05:27:16.523Z,5.13
2023-01-10T05:30:33.225Z,5.09
2023-01-10T05:33:51.969Z,5.01
2023-01-10T05:37:08.473Z,5.04
2023-01-10T05:40:24.963Z,4.99
2023-01-10T05:43:41.310Z,4.98
2023-01-10T05:46:57.468Z,4.98
2023-01-10T05:53:29.345Z,4.90
2023-01-10T05:56:45.547Z,4.94
2023-01-10T06:00:02.755Z,4.90
2023-01-10T06:03:21.632Z,4.90
2023-01-10T06:06:37.948Z,4.92
2023-01-10T06:09:54.074Z,4.88
2023-01-10T06:13:10.582Z,4.89
2023-01-10T06:16:26.814Z,4.85
2023-01-10T06:19:53.126Z,4.79
2023-01-10T06:23:09.336Z,4.79
2023-01-10T06:26:25.796Z,4.80
2023-01-10T06:29:42.332Z,4.74
2023-01-10T06:32:59.053Z,4.65
2023-01-10T06:36:17.473Z,4.65
2023-01-10T06:39:33.811Z,4.62
2023-01-10T06:42:50.586Z,4.61
2023-01-10T06:46:07.101Z,4.65
2023-01-10T06:49:23.228Z,4.62
2023-01-10T06:52:39.480Z,4.61
2023-01-10T06:55:55.521Z,4.57
2023-01-10T06:59:11.699Z,4.50
2023-01-10T07:02:27.775Z,4.48
2023-01-10T07:05:45.501Z,4.53
2023-01-10T07:09:02.541Z,4.56
2023-01-10T07:12:18.969Z,4.52
2023-01-10T07:15:35.545Z,4.50
2023-01-10T07:18:52.639Z,4.36
2023-01-10T07:22:08.689Z,4.43
2023-01-10T07:25:25.069Z,4.40
2023-01-10T07:28:41.384Z,4.33
2023-01-10T07:31:57.619Z,4.26
2023-01-10T07:38:29.258Z,4.20
2023-01-10T07:41:45.373Z,4.25
2023-01-10T07:45:04.503Z,4.17
2023-01-10T07:48:20.601Z,4.20
2023-01-10T07:54:52.088Z,4.19
2023-01-10T07:58:08.667Z,4.19
2023-01-10T08:01:25.785Z,4.21
2023-01-10T08:04:43.256Z,4.24
2023-01-10T08:08:01.171Z,4.12
2023-01-10T08:11:17.779Z,4.10
2023-01-10T08:14:34.463Z,4.11
2023-01-10T08:17:50.750Z,4.14
2023-01-10T08:21:08.796Z,4.21
2023-01-10T08:24:25.039Z,4.24
2023-01-10T08:27:41.322Z,4.28
2023-01-10T08:30:58.583Z,4.28
2023-01-10T08:34:14.903Z,4.29
2023-01-10T08:37:31.141Z,4.35
2023-01-10T08:40:47.735Z,4.23
2023-01-10T08:44:05.711Z,4.24
2023-01-10T08:47:22.170Z,4.18
2023-01-10T08:53:54.398Z,4.20
2023-01-10T08:57:10.944Z,4.13
2023-01-10T09:00:29.478Z,4.11
2023-01-10T09:03:45.705Z,4.10
2023-01-10T09:10:19.526Z,4.16
2023-01-10T09:13:35.862Z,4.25
2023-01-10T09:16:52.442Z,4.22
2023-01-10T09:20:10.914Z,4.33
2023-01-10T09:23:30.468Z,4.29
2023-01-10T09:26:47.001Z,4.30
2023-01-10T09:30:03.436Z,4.30
2023-01-10T09:33:20.653Z,4.37
2023-01-10T09:36:37.992Z,4.35
2023-01-10T09:39:54.481Z,4.44
2023-01-10T09:43:21.209Z,4.52
2023-01-10T09:46:45.700Z,4.59
2023-01-10T09:50:11.793Z,4.62
2023-01-10T09:53:31.371Z,4.57
2023-01-10T09:56:48.359Z,4.52
2023-01-10T10:00:05.825Z,4.55
2023-01-10T10:03:36.225Z,4.62
2023-01-10T10:06:55.283Z,4.53
2023-01-10T10:10:13.897Z,4.44
2023-01-10T10:13:38.063Z,4.46
2023-01-10T10:17:06.347Z,4.48
2023-01-10T10:20:34.523Z,4.53
2023-01-10T10:24:24.114Z,4.58
2023-01-10T10:27:49.236Z,4.62
2023-01-10T10:31:15.735Z,4.63
2023-01-10T10:34:37.477Z,4.66
2023-01-10T10:41:10.589Z,4.69
2023-01-10T10:44:41.004Z,4.68
2023-01-10T10:48:01.580Z,4.66
2023-01-10T10:54:33.496Z,4.71
2023-01-10T10:57:59.947Z,4.72
2023-01-10T11:01:10.838Z,4.67
2023-01-10T11:04:31.110Z,4.72
2023-01-10T11:07:48.427Z,4.77
2023-01-10T11:11:08.499Z,4.81
2023-01-10T11:14:40.920Z,4.81
2023-01-10T11:18:08.394Z,4.79
2023-01-10T11:21:26.548Z,4.78
2023-01-10T11:24:47.577Z,4.71
2023-01-10T11:28:06.990Z,4.66
2023-01-10T11:31:33.093Z,4.60
2023-01-10T11:34:54.856Z,4.67
2023-01-10T11:38:15.232Z,4.68
2023-01-10T11:41:36.923Z,4.62
2023-01-10T11:44:53.247Z,4.45
2023-01-10T11:48:34.239Z,4.58
2023-01-10T11:51:44.318Z,4.61
2023-01-10T11:55:01.183Z,4.59
2023-01-10T11:58:20.396Z,4.61
2023-01-10T12:01:43.257Z,4.62
2023-01-10T12:05:02.884Z,4.60
2023-01-10T12:08:31.012Z,4.62
2023-01-10T12:11:48.509Z,4.57
2023-01-10T12:15:07.924Z,4.53
2023-01-10T12:18:25.568Z,4.48
2023-01-10T12:21:50.449Z,4.48
2023-01-10T12:25:08.435Z,4.52
2023-01-10T12:28:31.260Z,4.53
2023-01-10T12:31:49.371Z,4.52
2023-01-10T12:35:12.466Z,4.53
2023-01-10T12:42:05.514Z,4.60
2023-01-10T12:45:29.106Z,4.62
2023-01-10T12:48:57.997Z,4.64
2023-01-10T12:52:18.466Z,4.63
2023-01-10T12:55:39.114Z,4.57
2023-01-10T12:59:00.707Z,4.64
2023-01-10T13:02:22.370Z,4.66
2023-01-10T13:05:39.966Z,4.65
2023-01-10T13:08:59.069Z,4.69
2023-01-10T13:12:21.684Z,4.65
2023-01-10T13:15:42.681Z,4.71
2023-01-10T13:19:28.744Z,4.68
2023-01-10T13:22:45.965Z,4.72
2023-01-10T13:26:09.810Z,4.74
2023-01-10T13:29:30.456Z,4.72
2023-01-10T13:32:48.483Z,4.67
2023-01-10T13:36:14.324Z,4.67
2023-01-10T13:39:37.496Z,4.72
2023-01-10T13:43:22.457Z,4.76
2023-01-10T13:46:57.938Z,4.79
2023-01-10T13:50:56.997Z,4.76
2023-01-10T13:54:34.389Z,4.76
2023-01-10T13:58:10.117Z,4.78
2023-01-10T14:01:52.365Z,4.68
2023-01-10T14:05:11.832Z,4.74
2023-01-10T14:08:31.457Z,4.75
2023-01-10T14:12:00.514Z,4.76
2023-01-10T14:15:33.467Z,4.77
2023-01-10T14:18:51.556Z,4.78
2023-01-10T14:22:10.533Z,4.65
2023-01-10T14:25:30.869Z,4.67
2023-01-10T14:28:49.237Z,4.73
2023-01-10T14:32:07.522Z,4.80
2023-01-10T14:35:29.883Z,4.85
2023-01-10T14:38:48.725Z,4.89
2023-01-10T14:42:09.726Z,4.94
2023-01-10T14:45:37.926Z,4.93
2023-01-10T14:49:00.625Z,4.93
2023-01-10T14:52:27.736Z,4.92
2023-01-10T14:55:49.448Z,4.93
2023-01-10T14:59:09.246Z,4.85
2023-01-10T15:02:32.084Z,4.85
2023-01-10T15:05:55.942Z,4.82
2023-01-10T15:09:13.916Z,4.76
2023-01-10T15:12:33.561Z,4.75
2023-01-10T15:15:51.613Z,4.75
2023-01-10T15:19:09.541Z,4.79
2023-01-10T15:22:36.071Z,4.80
2023-01-10T15:26:02.043Z,4.76
2023-01-10T15:29:25.529Z,4.75
2023-01-10T15:32:46.147Z,4.78
2023-01-10T15:36:03.469Z,4.74
2023-01-10T15:39:31.796Z,4.68
2023-01-10T15:42:48.140Z,4.67
2023-01-10T15:46:06.710Z,4.69
2023-01-10T15:49:33.518Z,4.67
2023-01-10T15:56:15.730Z,4.72
2023-01-10T15:59:36.448Z,4.77
2023-01-10T16:02:53.201Z,4.80
2023-01-10T16:06:13.352Z,4.81
2023-01-10T16:13:34.054Z,4.80
2023-01-10T16:16:50.397Z,4.73
2023-01-10T16:20:07.203Z,4.74
2023-01-10T16:23:28.130Z,4.78
2023-01-10T16:26:45.115Z,4.84
2023-01-10T16:30:01.883Z,4.89
2023-01-10T16:33:25.281Z,4.85
2023-01-10T16:36:42.088Z,4.80
2023-01-10T16:39:59.840Z,4.72
2023-01-10T16:43:23.819Z,4.65
2023-01-10T16:46:41.006Z,4.66
2023-01-10T16:49:58.639Z,4.66
2023-01-10T16:53:17.137Z,4.66
2023-01-10T16:56:35.255Z,4.63
2023-01-10T17:00:00.570Z,4.64
2023-01-10T17:03:24.420Z,4.62
2023-01-10T17:10:02.986Z,4.64
2023-01-10T17:13:20.221Z,4.61
2023-01-10T17:16:37.550Z,4.66
2023-01-10T17:20:06.865Z,4.71
2023-01-10T17:23:24.618Z,4.73
2023-01-10T17:26:40.907Z,4.65
2023-01-10T17:30:00.349Z,4.62
2023-01-10T17:33:17.243Z,4.62
2023-01-10T17:36:38.062Z,4.68
2023-01-10T17:39:55.248Z,4.72
2023-01-10T17:43:13.514Z,4.72
2023-01-10T17:46:30.825Z,4.72
2023-01-10T17:49:47.808Z,4.69
2023-01-10T17:53:04.269Z,4.67
2023-01-10T17:56:21.383Z,4.74
2023-01-10T17:59:38.470Z,4.74
2023-01-10T18:02:57.185Z,4.68
2023-01-10T18:06:23.820Z,4.70
2023-01-10T18:09:36.444Z,4.77
2023-01-10T18:12:54.034Z,4.75
2023-01-10T18:16:12.381Z,4.75
2023-01-10T18:19:30.665Z,4.78
2023-01-10T18:23:00.523Z,4.79
2023-01-10T18:26:22.210Z,4.81
2023-01-10T18:29:40.355Z,4.85
2023-01-10T18:32:59.111Z,4.81
2023-01-10T18:36:21.079Z,4.84
2023-01-10T18:39:39.438Z,4.84
2023-01-10T18:42:59.852Z,4.79
2023-01-10T18:46:19.126Z,4.78
2023-01-10T18:49:36.030Z,4.74
2023-01-10T18:52:55.295Z,4.76
2023-01-10T18:56:15.567Z,4.73
2023-01-10T18:59:31.654Z,4.70
2023-01-10T19:02:48.748Z,4.67
2023-01-10T19:06:11.311Z,4.62
2023-01-10T19:09:29.373Z,4.63
2023-01-10T19:12:45.596Z,4.56
2023-01-10T19:16:14.727Z,4.55
2023-01-10T19:19:31.036Z,4.59
2023-01-10T19:22:48.744Z,4.56
2023-01-10T19:26:06.728Z,4.57
2023-01-10T19:29:24.280Z,4.59
2023-01-10T19:32:43.441Z,4.60
2023-01-10T19:35:59.831Z,4.57
2023-01-10T19:42:31.954Z,4.56
2023-01-10T19:45:52.240Z,4.58
2023-01-10T19:49:09.294Z,4.61
2023-01-10T19:52:25.498Z,4.59
2023-01-10T19:55:41.732Z,4.60
2023-01-10T19:58:59.013Z,4.62
2023-01-10T20:02:19.835Z,4.59
2023-01-10T20:05:37.120Z,4.66
2023-01-10T20:08:54.981Z,4.67
2023-01-10T20:12:13.721Z,4.73
2023-01-10T20:15:30.076Z,4.77
2023-01-10T20:18:47.003Z,4.80
2023-01-10T20:22:03.709Z,4.78
2023-01-10T20:25:20.446Z,4.77
2023-01-10T20:28:39.684Z,4.70
2023-01-10T20:31:56.417Z,4.77
2023-01-10T20:35:14.786Z,4.74
2023-01-10T20:41:50.543Z,4.79
2023-01-10T20:45:07.487Z,4.78
2023-01-10T20:48:26.243Z,4.81
2023-01-10T20:51:43.274Z,4.82
2023-01-10T20:54:59.494Z,4.85
2023-01-10T20:58:16.274Z,4.86
2023-01-10T21:01:35.695Z,4.90
2023-01-10T21:04:52.267Z,4.94
2023-01-10T21:08:08.533Z,4.89
2023-01-10T21:11:27.472Z,4.89
2023-01-10T21:14:43.745Z,4.83
2023-01-10T21:17:59.941Z,4.85
2023-01-10T21:21:16.868Z,4.79
2023-01-10T21:24:34.064Z,4.76
2023-01-10T21:27:50.370Z,4.72
2023-01-10T21:31:06.702Z,4.72
2023-01-10T21:34:23.384Z,4.75
2023-01-10T21:37:39.537Z,4.77
2023-01-10T21:40:55.846Z,4.77
2023-01-10T21:44:13.430Z,4.73
2023-01-10T21:47:29.832Z,4.72
2023-01-10T21:50:47.243Z,4.77
2023-01-10T21:54:03.572Z,4.76
2023-01-10T21:57:21.828Z,4.73
2023-01-10T22:00:38.152Z,4.67
2023-01-10T22:03:55.948Z,4.65
2023-01-10T22:07:12.179Z,4.63
2023-01-10T22:13:48.000Z,4.66
2023-01-10T22:17:04.156Z,4.72
2023-01-10T22:20:21.875Z,4.78
2023-01-10T22:23:39.233Z,4.75
2023-01-10T22:26:58.265Z,4.74
2023-01-10T22:30:17.871Z,4.78
2023-01-10T22:33:36.869Z,4.81
2023-01-10T22:36:52.825Z,4.79
2023-01-10T22:40:08.997Z,4.76
2023-01-10T22:43:24.960Z,4.78
2023-01-10T22:46:41.484Z,4.79
2023-01-10T22:49:57.597Z,4.75
2023-01-10T22:53:13.778Z,4.77
2023-01-10T22:56:30.351Z,4.81
2023-01-10T22:59:51.043Z,4.82
2023-01-10T23:03:07.257Z,4.86
2023-01-10T23:06:25.270Z,4.81
2023-01-10T23:09:41.438Z,4.74
2023-01-10T23:12:58.584Z,4.75
2023-01-10T23:16:19.203Z,4.70
2023-01-10T23:19:35.832Z,4.75
2023-01-10T23:22:53.653Z,4.70
2023-01-10T23:26:14.208Z,4.61
2023-01-10T23:29:30.453Z,4.62
2023-01-10T23:32:46.855Z,4.58
2023-01-10T23:36:03.071Z,4.56
2023-01-10T23:39:22.507Z,4.50
2023-01-10T23:42:36.371Z,4.43
2023-01-10T23:45:55.524Z,4.43
2023-01-10T23:49:11.732Z,4.36
2023-01-10T23:52:27.834Z,4.35
2023-01-10T23:59:03.471Z,4.30
